sensor_id;sensor_type;location;lat;lon;timestamp;pressure;altitude;pressure_sealevel;temperature;humidity
5350;BME280;2697;42.144;24.794;2023-01-26T00:02:04;153385.03;;;3.18;100.00
5350;BME280;2697;42.144;24.794;2023-01-26T00:04:30;153378.47;;;3.15;100.00
5350;BME280;2697;42.144;24.794;2023-01-26T00:06:55;153368.03;;;3.11;100.00
5350;BME280;2697;42.144;24.794;2023-01-26T00:09:21;153314.38;;;2.90;100.00
5350;BME280;2697;42.144;24.794;2023-01-26T00:11:46;153275.13;;;2.75;100.00
5350;BME280;2697;42.144;24.794;2023-01-26T00:14:11;153313.09;;;2.90;100.00
5350;BME280;2697;42.144;24.794;2023-01-26T00:16:37;153390.28;;;3.20;100.00
5350;BME280;2697;42.144;24.794;2023-01-26T00:19:03;153365.41;;;3.10;100.00
5350;BME280;2697;42.144;24.794;2023-01-26T00:21:28;153358.88;;;3.07;100.00
5350;BME280;2697;42.144;24.794;2023-01-26T00:23:53;153324.84;;;2.94;100.00
5350;BME280;2697;42.144;24.794;2023-01-26T00:26:21;153292.13;;;2.81;100.00
5350;BME280;2697;42.144;24.794;2023-01-26T00:28:47;153228.03;;;2.56;100.00
5350;BME280;2697;42.144;24.794;2023-01-26T00:31:15;153214.97;;;2.51;100.00
5350;BME280;2697;42.144;24.794;2023-01-26T00:33:41;153226.72;;;2.56;100.00
5350;BME280;2697;42.144;24.794;2023-01-26T00:36:07;153214.97;;;2.51;100.00
5350;BME280;2697;42.144;24.794;2023-01-26T00:38:33;153225.41;;;2.55;100.00
5350;BME280;2697;42.144;24.794;2023-01-26T00:40:58;153250.25;;;2.65;100.00
5350;BME280;2697;42.144;24.794;2023-01-26T00:43:24;153221.50;;;2.54;100.00
5350;BME280;2697;42.144;24.794;2023-01-26T00:45:49;153228.03;;;2.56;100.00
5350;BME280;2697;42.144;24.794;2023-01-26T00:48:15;153199.25;;;2.45;100.00
5350;BME280;2697;42.144;24.794;2023-01-26T00:50:40;153260.72;;;2.69;100.00
5350;BME280;2697;42.144;24.794;2023-01-26T00:53:06;153238.53;;;2.61;100.00
5350;BME280;2697;42.144;24.794;2023-01-26T00:55:31;153228.03;;;2.56;100.00
5350;BME280;2697;42.144;24.794;2023-01-26T00:58:01;153234.56;;;2.59;100.00
5350;BME280;2697;42.144;24.794;2023-01-26T01:00:27;153212.31;;;2.50;100.00
5350;BME280;2697;42.144;24.794;2023-01-26T01:02:52;148980.03;;;2.50;100.00
5350;BME280;2697;42.144;24.794;2023-01-26T01:05:20;138093.53;;;2.45;100.00
5350;BME280;2697;42.144;24.794;2023-01-26T01:07:45;135039.84;;;2.58;100.00
5350;BME280;2697;42.144;24.794;2023-01-26T01:10:11;143306.38;;;2.74;100.00
5350;BME280;2697;42.144;24.794;2023-01-26T01:12:36;144147.47;;;2.85;100.00
5350;BME280;2697;42.144;24.794;2023-01-26T01:15:02;151475.41;;;2.87;100.00
5350;BME280;2697;42.144;24.794;2023-01-26T01:17:27;139881.53;;;2.77;100.00
5350;BME280;2697;42.144;24.794;2023-01-26T01:19:53;147317.47;;;2.95;100.00
5350;BME280;2697;42.144;24.794;2023-01-26T01:22:18;147459.53;;;2.81;100.00
5350;BME280;2697;42.144;24.794;2023-01-26T01:24:43;147873.00;;;2.65;100.00
5350;BME280;2697;42.144;24.794;2023-01-26T01:27:09;147236.59;;;2.73;100.00
5350;BME280;2697;42.144;24.794;2023-01-26T01:29:34;147519.94;;;2.56;100.00
5350;BME280;2697;42.144;24.794;2023-01-26T01:32:00;145952.41;;;2.72;100.00
5350;BME280;2697;42.144;24.794;2023-01-26T01:34:25;150880.41;;;2.72;100.00
5350;BME280;2697;42.144;24.794;2023-01-26T01:36:51;153262.00;;;2.70;100.00
5350;BME280;2697;42.144;24.794;2023-01-26T01:39:16;153239.81;;;2.61;100.00
5350;BME280;2697;42.144;24.794;2023-01-26T01:41:42;153292.13;;;2.81;100.00
5350;BME280;2697;42.144;24.794;2023-01-26T01:46:44;153262.00;;;2.70;100.00
5350;BME280;2697;42.144;24.794;2023-01-26T01:49:25;153328.75;;;2.96;100.00
5350;BME280;2697;42.144;24.794;2023-01-26T01:54:37;153251.56;;;2.66;100.00
5350;BME280;2697;42.144;24.794;2023-01-26T01:57:08;153281.66;;;2.77;100.00
5350;BME280;2697;42.144;24.794;2023-01-26T01:59:41;153267.28;;;2.72;100.00
5350;BME280;2697;42.144;24.794;2023-01-26T02:02:09;153288.22;;;2.80;100.00
5350;BME280;2697;42.144;24.794;2023-01-26T02:04:35;153212.31;;;2.50;100.00
5350;BME280;2697;42.144;24.794;2023-01-26T02:07:02;153214.97;;;2.51;100.00
5350;BME280;2697;42.144;24.794;2023-01-26T02:09:32;153186.16;;;2.40;100.00
5350;BME280;2697;42.144;24.794;2023-01-26T02:12:19;153217.50;;;2.53;100.00
5350;BME280;2697;42.144;24.794;2023-01-26T02:14:46;148514.91;;;2.64;100.00
5350;BME280;2697;42.144;24.794;2023-01-26T02:17:11;153254.19;;;2.67;100.00
5350;BME280;2697;42.144;24.794;2023-01-26T02:22:15;153306.50;;;2.87;100.00
5350;BME280;2697;42.144;24.794;2023-01-26T02:24:41;153337.94;;;2.99;100.00
5350;BME280;2697;42.144;24.794;2023-01-26T02:27:07;153306.50;;;2.87;100.00
5350;BME280;2697;42.144;24.794;2023-01-26T02:29:32;153298.66;;;2.84;100.00
5350;BME280;2697;42.144;24.794;2023-01-26T02:31:58;153317.00;;;2.91;100.00
5350;BME280;2697;42.144;24.794;2023-01-26T02:34:23;153364.09;;;3.09;100.00
5350;BME280;2697;42.144;24.794;2023-01-26T02:36:59;153335.31;;;2.98;100.00
5350;BME280;2697;42.144;24.794;2023-01-26T02:39:46;153314.38;;;2.90;100.00
5350;BME280;2697;42.144;24.794;2023-01-26T02:42:13;153233.25;;;2.58;100.00
5350;BME280;2697;42.144;24.794;2023-01-26T02:44:57;153188.78;;;2.41;100.00
5350;BME280;2697;42.144;24.794;2023-01-26T02:47:23;153167.88;;;2.33;100.00
5350;BME280;2697;42.144;24.794;2023-01-26T02:49:48;148497.63;;;2.35;100.00
5350;BME280;2697;42.144;24.794;2023-01-26T02:52:22;142520.00;;;2.32;100.00
5350;BME280;2697;42.144;24.794;2023-01-26T02:54:50;139767.06;;;2.28;100.00
5350;BME280;2697;42.144;24.794;2023-01-26T02:57:33;143241.59;;;2.47;100.00
5350;BME280;2697;42.144;24.794;2023-01-26T02:59:59;152144.19;;;2.34;100.00
5350;BME280;2697;42.144;24.794;2023-01-26T03:02:25;153190.06;;;2.42;100.00
5350;BME280;2697;42.144;24.794;2023-01-26T03:04:50;153160.00;;;2.30;100.00
5350;BME280;2697;42.144;24.794;2023-01-26T03:07:15;153165.22;;;2.32;100.00
5350;BME280;2697;42.144;24.794;2023-01-26T03:09:41;153092.09;;;2.40;100.00
5350;BME280;2697;42.144;24.794;2023-01-26T03:12:06;153196.66;;;2.44;100.00
5350;BME280;2697;42.144;24.794;2023-01-26T03:14:31;153197.97;;;2.45;100.00
5350;BME280;2697;42.144;24.794;2023-01-26T03:16:57;153203.19;;;2.47;100.00
5350;BME280;2697;42.144;24.794;2023-01-26T03:19:22;153196.66;;;2.44;100.00
5350;BME280;2697;42.144;24.794;2023-01-26T03:22:08;153167.88;;;2.33;100.00
5350;BME280;2697;42.144;24.794;2023-01-26T03:24:53;147990.81;;;2.32;100.00
5350;BME280;2697;42.144;24.794;2023-01-26T03:27:45;132587.22;;;2.34;100.00
5350;BME280;2697;42.144;24.794;2023-01-26T03:30:11;145627.31;;;2.60;100.00
5350;BME280;2697;42.144;24.794;2023-01-26T03:32:37;153209.72;;;2.49;100.00
5350;BME280;2697;42.144;24.794;2023-01-26T03:35:03;153209.72;;;2.49;100.00
5350;BME280;2697;42.144;24.794;2023-01-26T03:37:28;153197.97;;;2.45;100.00
5350;BME280;2697;42.144;24.794;2023-01-26T03:39:58;153209.72;;;2.49;100.00
5350;BME280;2697;42.144;24.794;2023-01-26T03:42:42;153194.03;;;2.43;100.00
5350;BME280;2697;42.144;24.794;2023-01-26T03:45:26;153180.94;;;2.38;100.00
5350;BME280;2697;42.144;24.794;2023-01-26T03:48:11;153183.56;;;2.39;100.00
5350;BME280;2697;42.144;24.794;2023-01-26T03:50:56;153178.34;;;2.37;100.00
5350;BME280;2697;42.144;24.794;2023-01-26T03:53:40;153170.50;;;2.34;100.00
5350;BME280;2697;42.144;24.794;2023-01-26T03:56:25;153166.53;;;2.33;100.00
5350;BME280;2697;42.144;24.794;2023-01-26T03:58:54;153165.22;;;2.32;100.00
5350;BME280;2697;42.144;24.794;2023-01-26T04:01:22;153157.41;;;2.29;100.00
5350;BME280;2697;42.144;24.794;2023-01-26T04:03:53;153157.41;;;2.29;100.00
5350;BME280;2697;42.144;24.794;2023-01-26T04:06:41;153112.94;;;2.12;100.00
5350;BME280;2697;42.144;24.794;2023-01-26T04:09:26;153161.31;;;2.31;100.00
5350;BME280;2697;42.144;24.794;2023-01-26T04:11:51;153153.50;;;2.27;100.00
5350;BME280;2697;42.144;24.794;2023-01-26T04:14:17;153150.88;;;2.26;100.00
5350;BME280;2697;42.144;24.794;2023-01-26T04:17:02;153167.88;;;2.33;100.00
5350;BME280;2697;42.144;24.794;2023-01-26T04:19:46;153180.94;;;2.38;100.00
5350;BME280;2697;42.144;24.794;2023-01-26T04:22:34;153188.78;;;2.41;100.00
5350;BME280;2697;42.144;24.794;2023-01-26T04:25:06;153196.66;;;2.44;100.00
5350;BME280;2697;42.144;24.794;2023-01-26T04:27:32;153182.25;;;2.39;100.00
5350;BME280;2697;42.144;24.794;2023-01-26T04:29:59;153169.19;;;2.34;100.00
5350;BME280;2697;42.144;24.794;2023-01-26T04:32:25;153175.72;;;2.36;100.00
5350;BME280;2697;42.144;24.794;2023-01-26T04:34:51;153157.41;;;2.29;100.00
5350;BME280;2697;42.144;24.794;2023-01-26T04:37:16;153160.00;;;2.30;100.00
5350;BME280;2697;42.144;24.794;2023-01-26T04:39:41;153165.22;;;2.32;100.00
5350;BME280;2697;42.144;24.794;2023-01-26T04:42:07;153152.19;;;2.27;100.00
5350;BME280;2697;42.144;24.794;2023-01-26T04:44:32;153152.19;;;2.27;100.00
5350;BME280;2697;42.144;24.794;2023-01-26T04:46:58;153150.88;;;2.26;100.00
5350;BME280;2697;42.144;24.794;2023-01-26T04:49:23;153160.00;;;2.30;100.00
5350;BME280;2697;42.144;24.794;2023-01-26T04:51:48;153157.41;;;2.29;100.00
5350;BME280;2697;42.144;24.794;2023-01-26T04:54:14;153144.34;;;2.24;100.00
5350;BME280;2697;42.144;24.794;2023-01-26T04:56:39;153165.22;;;2.32;100.00
5350;BME280;2697;42.144;24.794;2023-01-26T04:59:06;153171.81;;;2.35;100.00
5350;BME280;2697;42.144;24.794;2023-01-26T05:01:32;153177.03;;;2.37;100.00
5350;BME280;2697;42.144;24.794;2023-01-26T05:03:59;152543.47;;;2.29;100.00
5350;BME280;2697;42.144;24.794;2023-01-26T05:06:25;150361.53;;;2.40;100.00
5350;BME280;2697;42.144;24.794;2023-01-26T05:08:50;151922.88;;;2.31;100.00
5350;BME280;2697;42.144;24.794;2023-01-26T05:11:15;150847.56;;;2.28;100.00
5350;BME280;2697;42.144;24.794;2023-01-26T05:13:41;150123.16;;;2.35;100.00
5350;BME280;2697;42.144;24.794;2023-01-26T05:16:07;153009.94;;;2.25;100.00
5350;BME280;2697;42.144;24.794;2023-01-26T05:18:32;153165.22;;;2.32;100.00
5350;BME280;2697;42.144;24.794;2023-01-26T05:20:58;153166.53;;;2.33;100.00
5350;BME280;2697;42.144;24.794;2023-01-26T05:23:23;151274.75;;;2.26;100.00
5350;BME280;2697;42.144;24.794;2023-01-26T05:25:49;141815.88;;;2.24;100.00
5350;BME280;2697;42.144;24.794;2023-01-26T05:28:14;136659.81;;;2.18;100.00
5350;BME280;2697;42.144;24.794;2023-01-26T05:30:40;131531.47;;;2.20;100.00
5350;BME280;2697;42.144;24.794;2023-01-26T05:33:06;129482.91;;;2.22;100.00
5350;BME280;2697;42.144;24.794;2023-01-26T05:35:32;126701.09;;;1.99;100.00
5350;BME280;2697;42.144;24.794;2023-01-26T05:37:58;122275.94;;;2.06;100.00
5350;BME280;2697;42.144;24.794;2023-01-26T05:40:23;121600.81;;;2.09;100.00
5350;BME280;2697;42.144;24.794;2023-01-26T05:42:50;117503.78;;;2.07;100.00
5350;BME280;2697;42.144;24.794;2023-01-26T05:45:16;117521.81;;;2.16;100.00
5350;BME280;2697;42.144;24.794;2023-01-26T05:47:42;119568.56;;;2.16;100.00
5350;BME280;2697;42.144;24.794;2023-01-26T05:50:09;122994.03;;;2.23;100.00
5350;BME280;2697;42.144;24.794;2023-01-26T05:52:35;118542.53;;;2.15;100.00
5350;BME280;2697;42.144;24.794;2023-01-26T05:55:00;110701.56;;;2.11;100.00
5350;BME280;2697;42.144;24.794;2023-01-26T05:57:26;109694.88;;;2.19;100.00
5350;BME280;2697;42.144;24.794;2023-01-26T05:59:51;112768.72;;;2.24;100.00
5350;BME280;2697;42.144;24.794;2023-01-26T06:02:17;113463.31;;;2.32;100.00
5350;BME280;2697;42.144;24.794;2023-01-26T06:04:42;109719.16;;;2.32;100.00
5350;BME280;2697;42.144;24.794;2023-01-26T06:07:08;116188.22;;;2.31;100.00
5350;BME280;2697;42.144;24.794;2023-01-26T06:09:34;111069.28;;;2.26;100.00
5350;BME280;2697;42.144;24.794;2023-01-26T06:11:59;109696.75;;;2.20;100.00
5350;BME280;2697;42.144;24.794;2023-01-26T06:14:25;101882.19;;;2.22;100.00
5350;BME280;2697;42.144;24.794;2023-01-26T06:16:50;102262.72;;;2.46;100.00
5350;BME280;2697;42.144;24.794;2023-01-26T06:19:18;121990.88;;;2.33;100.00
5350;BME280;2697;42.144;24.794;2023-01-26T06:21:43;137065.41;;;2.45;100.00
5350;BME280;2697;42.144;24.794;2023-01-26T06:24:09;144610.84;;;2.45;100.00
5350;BME280;2697;42.144;24.794;2023-01-26T06:26:34;144613.31;;;2.46;100.00
5350;BME280;2697;42.144;24.794;2023-01-26T06:28:59;153217.59;;;2.52;100.00
5350;BME280;2697;42.144;24.794;2023-01-26T06:31:25;152866.28;;;2.42;100.00
5350;BME280;2697;42.144;24.794;2023-01-26T06:33:54;139072.06;;;2.24;100.00
5350;BME280;2697;42.144;24.794;2023-01-26T06:36:20;138102.91;;;2.49;100.00
5350;BME280;2697;42.144;24.794;2023-01-26T06:38:47;148794.19;;;2.64;100.00
5350;BME280;2697;42.144;24.794;2023-01-26T06:41:13;153235.84;;;2.60;100.00
5350;BME280;2697;42.144;24.794;2023-01-26T06:43:39;149081.25;;;2.66;100.00
5350;BME280;2697;42.144;24.794;2023-01-26T06:46:07;150956.19;;;2.67;100.00
5350;BME280;2697;42.144;24.794;2023-01-26T06:48:33;138145.31;;;2.68;100.00
5350;BME280;2697;42.144;24.794;2023-01-26T06:53:42;137480.72;;;2.77;100.00
5350;BME280;2697;42.144;24.794;2023-01-26T06:56:08;135432.09;;;2.80;100.00
5350;BME280;2697;42.144;24.794;2023-01-26T06:58:33;147440.66;;;2.90;100.00
5350;BME280;2697;42.144;24.794;2023-01-26T07:00:59;153343.16;;;3.01;100.00
5350;BME280;2697;42.144;24.794;2023-01-26T07:03:24;153351.00;;;3.04;100.00
5350;BME280;2697;42.144;24.794;2023-01-26T07:05:50;153345.78;;;3.02;100.00
5350;BME280;2697;42.144;24.794;2023-01-26T07:08:15;147906.72;;;2.89;100.00
5350;BME280;2697;42.144;24.794;2023-01-26T07:10:41;133370.56;;;2.78;100.00
5350;BME280;2697;42.144;24.794;2023-01-26T07:13:06;128665.50;;;3.19;100.00
5350;BME280;2697;42.144;24.794;2023-01-26T07:15:32;150444.28;;;3.24;100.00
5350;BME280;2697;42.144;24.794;2023-01-26T07:17:58;153374.53;;;3.13;100.00
5350;BME280;2697;42.144;24.794;2023-01-26T07:20:24;153319.59;;;2.92;100.00
5350;BME280;2697;42.144;24.794;2023-01-26T07:22:50;153327.44;;;2.95;100.00
5350;BME280;2697;42.144;24.794;2023-01-26T07:25:17;153354.91;;;3.06;100.00
5350;BME280;2697;42.144;24.794;2023-01-26T07:27:43;153382.44;;;3.17;100.00
5350;BME280;2697;42.144;24.794;2023-01-26T07:30:11;153438.69;;;3.38;100.00
5350;BME280;2697;42.144;24.794;2023-01-26T07:32:38;153354.91;;;3.06;100.00
5350;BME280;2697;42.144;24.794;2023-01-26T07:35:05;153375.84;;;3.14;100.00
5350;BME280;2697;42.144;24.794;2023-01-26T07:37:30;153336.63;;;2.99;100.00
5350;BME280;2697;42.144;24.794;2023-01-26T07:39:55;153364.09;;;3.09;100.00
5350;BME280;2697;42.144;24.794;2023-01-26T07:42:21;153356.22;;;3.06;100.00
5350;BME280;2697;42.144;24.794;2023-01-26T07:44:47;153311.78;;;2.89;100.00
5350;BME280;2697;42.144;24.794;2023-01-26T07:47:12;148786.81;;;2.86;100.00
5350;BME280;2697;42.144;24.794;2023-01-26T07:49:39;139607.47;;;3.06;100.00
5350;BME280;2697;42.144;24.794;2023-01-26T07:52:05;143052.06;;;3.11;100.00
5350;BME280;2697;42.144;24.794;2023-01-26T07:54:30;142013.16;;;3.07;100.00
5350;BME280;2697;42.144;24.794;2023-01-26T07:56:56;136484.81;;;2.91;100.00
5350;BME280;2697;42.144;24.794;2023-01-26T07:59:22;121423.00;;;2.90;100.00
5350;BME280;2697;42.144;24.794;2023-01-26T08:01:48;108453.22;;;2.84;100.00
5350;BME280;2697;42.144;24.794;2023-01-26T08:04:14;102015.84;;;3.00;100.00
5350;BME280;2697;42.144;24.794;2023-01-26T08:06:40;93859.78;;;2.98;100.00
5350;BME280;2697;42.144;24.794;2023-01-26T08:09:05;89785.81;;;2.96;100.00
5350;BME280;2697;42.144;24.794;2023-01-26T08:11:31;86053.50;;;2.92;100.00
5350;BME280;2697;42.144;24.794;2023-01-26T08:13:56;79283.97;;;2.91;100.00
5350;BME280;2697;42.144;24.794;2023-01-26T08:16:21;73865.75;;;2.80;100.00
5350;BME280;2697;42.144;24.794;2023-01-26T08:18:47;70490.91;;;2.80;100.00
5350;BME280;2697;42.144;24.794;2023-01-26T08:21:14;66774.56;;;2.73;100.00
5350;BME280;2697;42.144;24.794;2023-01-26T08:23:40;61056.13;;;2.78;100.00
5350;BME280;2697;42.144;24.794;2023-01-26T08:26:08;62087.38;;;2.99;100.00
5350;BME280;2697;42.144;24.794;2023-01-26T08:28:34;63090.53;;;2.92;100.00
5350;BME280;2697;42.144;24.794;2023-01-26T08:31:19;56004.59;;;2.70;100.00
5350;BME280;2697;42.144;24.794;2023-01-26T08:33:47;50628.81;;;2.66;100.00
5350;BME280;2697;42.144;24.794;2023-01-26T08:36:14;45285.03;;;2.93;100.00
5350;BME280;2697;42.144;24.794;2023-01-26T08:38:40;46956.66;;;2.87;100.00
5350;BME280;2697;42.144;24.794;2023-01-26T08:41:06;43593.63;;;2.72;100.00
5350;BME280;2697;42.144;24.794;2023-01-26T08:43:32;37908.69;;;2.80;100.00
5350;BME280;2697;42.144;24.794;2023-01-26T08:45:58;39917.00;;;2.81;100.00
5350;BME280;2697;42.144;24.794;2023-01-26T08:48:24;37580.31;;;2.90;100.00
5350;BME280;2697;42.144;24.794;2023-01-26T08:50:56;38919.38;;;2.91;100.00
5350;BME280;2697;42.144;24.794;2023-01-26T08:53:23;38237.00;;;2.70;100.00
5350;BME280;2697;42.144;24.794;2023-01-26T08:55:48;35228.00;;;2.71;100.00
5350;BME280;2697;42.144;24.794;2023-01-26T08:58:14;32217.41;;;2.64;100.00
5350;BME280;2697;42.144;24.794;2023-01-26T09:00:40;30223.88;;;2.83;100.00
5350;BME280;2697;42.144;24.794;2023-01-26T09:03:05;28878.34;;;2.62;100.00
5350;BME280;2697;42.144;24.794;2023-01-26T09:05:37;27205.75;;;2.52;100.00
5350;BME280;2697;42.144;24.794;2023-01-26T09:08:04;22540.78;;;2.53;100.00
5350;BME280;2697;42.144;24.794;2023-01-26T09:10:31;20214.13;;;2.65;100.00
5350;BME280;2697;42.144;24.794;2023-01-26T09:12:58;19883.13;;;2.71;100.00
5350;BME280;2697;42.144;24.794;2023-01-26T09:15:23;17220.00;;;2.69;100.00
5350;BME280;2697;42.144;24.794;2023-01-26T09:17:49;16226.38;;;2.84;100.00
5350;BME280;2697;42.144;24.794;2023-01-26T09:20:15;17212.09;;;2.42;100.00
5350;BME280;2697;42.144;24.794;2023-01-26T09:22:41;12559.00;;;2.41;100.00
5350;BME280;2697;42.144;24.794;2023-01-26T09:25:07;9572.63;;;2.51;100.00
5350;BME280;2697;42.144;24.794;2023-01-26T09:27:32;8242.84;;;2.37;100.00
5350;BME280;2697;42.144;24.794;2023-01-26T09:29:57;5589.41;;;2.33;100.00
5350;BME280;2697;42.144;24.794;2023-01-26T09:32:24;2938.50;;;2.36;100.00
5350;BME280;2697;42.144;24.794;2023-01-26T09:34:49;1613.94;;;2.45;100.00
5350;BME280;2697;42.144;24.794;2023-01-26T09:37:16;-41.59;;;2.58;100.00
5350;BME280;2697;42.144;24.794;2023-01-26T09:39:41;290.19;;;2.87;100.00
5350;BME280;2697;42.144;24.794;2023-01-26T09:50:20;620.28;;;2.41;100.00
5350;BME280;2697;42.144;24.794;2023-01-26T09:53:01;-1365.94;;;2.47;100.00
5350;BME280;2697;42.144;24.794;2023-01-26T09:55:29;-2028.03;;;2.60;100.00
5350;BME280;2697;42.144;24.794;2023-01-26T09:57:59;-1034.94;;;2.53;100.00
5350;BME280;2697;42.144;24.794;2023-01-26T10:00:38;-373.03;;;2.31;100.00
5350;BME280;2697;42.144;24.794;2023-01-26T10:03:58;-2358.34;;;2.29;100.00
5350;BME280;2697;42.144;24.794;2023-01-26T10:06:23;-3350.44;;;2.25;100.00
5350;BME280;2697;42.144;24.794;2023-01-26T10:08:55;-3681.09;;;2.24;100.00
5350;BME280;2697;42.144;24.794;2023-01-26T10:13:55;-6326.38;;;2.35;100.00
5350;BME280;2697;42.144;24.794;2023-01-26T10:16:21;-6987.28;;;2.35;100.00
5350;BME280;2697;42.144;24.794;2023-01-26T10:18:53;-6987.88;;;2.41;100.00
5350;BME280;2697;42.144;24.794;2023-01-26T10:21:24;-6985.41;;;2.16;100.00
5350;BME280;2697;42.144;24.794;2023-01-26T10:23:53;-7978.41;;;2.35;100.00
5350;BME280;2697;42.144;24.794;2023-01-26T10:26:21;-8638.34;;;2.29;100.00
5350;BME280;2697;42.144;24.794;2023-01-26T10:28:51;-9632.75;;;2.56;100.00
5350;BME280;2697;42.144;24.794;2023-01-26T10:31:20;-8971.47;;;2.51;100.00
5350;BME280;2697;42.144;24.794;2023-01-26T10:33:52;-9298.78;;;2.29;100.00
5350;BME280;2697;42.144;24.794;2023-01-26T10:36:18;-9958.91;;;2.27;100.00
5350;BME280;2697;42.144;24.794;2023-01-26T10:38:44;-10950.75;;;2.37;100.00
5350;BME280;2697;42.144;24.794;2023-01-26T10:41:23;-10620.31;;;2.35;100.00
5350;BME280;2697;42.144;24.794;2023-01-26T10:44:52;-10624.47;;;2.62;100.00
5350;BME280;2697;42.144;24.794;2023-01-26T10:47:17;-9963.72;;;2.61;100.00
5350;BME280;2697;42.144;24.794;2023-01-26T10:49:42;-9966.78;;;2.81;100.00
5350;BME280;2697;42.144;24.794;2023-01-26T10:52:22;-9304.16;;;2.69;100.00
5350;BME280;2697;42.144;24.794;2023-01-26T10:55:19;-9304.97;;;2.75;100.00
5350;BME280;2697;42.144;24.794;2023-01-26T10:57:44;-8313.16;;;2.72;100.00
5350;BME280;2697;42.144;24.794;2023-01-26T11:00:30;-7983.19;;;2.77;100.00
5350;BME280;2697;42.144;24.794;2023-01-26T11:05:37;-8976.09;;;2.87;100.00
5350;BME280;2697;42.144;24.794;2023-01-26T11:08:33;-9634.84;;;2.71;100.00
5350;BME280;2697;42.144;24.794;2023-01-26T11:10:59;-10956.84;;;2.75;100.00
5350;BME280;2697;42.144;24.794;2023-01-26T11:13:25;-11617.75;;;2.77;100.00
5350;BME280;2697;42.144;24.794;2023-01-26T11:21:21;-13269.69;;;2.82;100.00
5350;BME280;2697;42.144;24.794;2023-01-26T11:24:02;-13598.88;;;2.77;100.00
5350;BME280;2697;42.144;24.794;2023-01-26T11:34:31;-14921.44;;;2.88;100.00
5350;BME280;2697;42.144;24.794;2023-01-26T11:45:26;-12617.50;;;3.25;100.00
5350;BME280;2697;42.144;24.794;2023-01-26T11:54:03;-7988.25;;;3.22;100.00
5350;BME280;2697;42.144;24.794;2023-01-26T11:59:15;-6331.91;;;2.99;100.00
5350;BME280;2697;42.144;24.794;2023-01-26T12:01:53;-5339.09;;;2.97;100.00
5350;BME280;2697;42.144;24.794;2023-01-26T12:04:21;-6330.69;;;2.85;100.00
5350;BME280;2697;42.144;24.794;2023-01-26T12:06:58;-6660.97;;;2.80;100.00
5350;BME280;2697;42.144;24.794;2023-01-26T12:09:35;-6993.38;;;2.98;100.00
5350;BME280;2697;42.144;24.794;2023-01-26T12:12:08;-6661.09;;;2.81;100.00
5350;BME280;2697;42.144;24.794;2023-01-26T12:19:54;-6993.91;;;3.03;100.00
5350;BME280;2697;42.144;24.794;2023-01-26T12:22:39;-6330.28;;;2.80;100.00
5350;BME280;2697;42.144;24.794;2023-01-26T12:33:23;-10295.66;;;2.71;100.00
5350;BME280;2697;42.144;24.794;2023-01-26T12:36:15;-11614.41;;;2.57;100.00
5350;BME280;2697;42.144;24.794;2023-01-26T12:41:20;-12942.28;;;2.96;100.00
5350;BME280;2697;42.144;24.794;2023-01-26T12:46:14;-11625.38;;;3.21;100.00
5350;BME280;2697;42.144;24.794;2023-01-26T12:48:45;-10632.19;;;3.11;100.00
5350;BME280;2697;42.144;24.794;2023-01-26T12:51:40;-10300.19;;;3.01;100.00
5350;BME280;2697;42.144;24.794;2023-01-26T12:54:41;-9307.84;;;2.96;100.00
5350;BME280;2697;42.144;24.794;2023-01-26T12:57:06;-8648.31;;;3.09;100.00
5350;BME280;2697;42.144;24.794;2023-01-26T12:59:38;-7323.41;;;2.91;100.00
5350;BME280;2697;42.144;24.794;2023-01-26T13:02:33;-7323.34;;;2.90;100.00
5350;BME280;2697;42.144;24.794;2023-01-26T13:05:01;-7322.50;;;2.82;100.00
5350;BME280;2697;42.144;24.794;2023-01-26T13:07:36;-7653.88;;;2.89;100.00
5350;BME280;2697;42.144;24.794;2023-01-26T13:10:25;-7982.25;;;2.69;100.00
5350;BME280;2697;42.144;24.794;2023-01-26T13:15:42;-10958.81;;;2.87;100.00
5350;BME280;2697;42.144;24.794;2023-01-26T13:18:11;-11284.84;;;2.61;100.00
5350;BME280;2697;42.144;24.794;2023-01-26T13:20:45;-12276.34;;;2.67;100.00
5350;BME280;2697;42.144;24.794;2023-01-26T13:28:36;-12941.13;;;2.90;100.00
5350;BME280;2697;42.144;24.794;2023-01-26T13:31:03;-12939.72;;;2.83;100.00
5350;BME280;2697;42.144;24.794;2023-01-26T13:33:28;-13600.84;;;2.87;100.00
5350;BME280;2697;42.144;24.794;2023-01-26T13:35:54;-13928.31;;;2.74;100.00
5350;BME280;2697;42.144;24.794;2023-01-26T13:38:27;-14586.88;;;2.68;100.00
5350;BME280;2697;42.144;24.794;2023-01-26T13:40:56;-15247.56;;;2.71;100.00
5350;BME280;2697;42.144;24.794;2023-01-26T13:43:51;-16235.03;;;2.63;100.00
5350;BME280;2697;42.144;24.794;2023-01-26T13:46:27;-17556.41;;;2.72;100.00
5350;BME280;2697;42.144;24.794;2023-01-26T13:48:55;-17883.88;;;2.64;100.00
5350;BME280;2697;42.144;24.794;2023-01-26T13:51:32;-17881.91;;;2.56;100.00
5350;BME280;2697;42.144;24.794;2023-01-26T13:54:14;-18548.03;;;2.81;100.00
5350;BME280;2697;42.144;24.794;2023-01-26T13:56:41;-18215.19;;;2.70;100.00
5350;BME280;2697;42.144;24.794;2023-01-26T13:59:15;-18878.88;;;2.85;100.00
5350;BME280;2697;42.144;24.794;2023-01-26T14:01:45;-18545.13;;;2.71;100.00
5350;BME280;2697;42.144;24.794;2023-01-26T14:04:31;-18541.63;;;2.58;100.00
5350;BME280;2697;42.144;24.794;2023-01-26T14:07:08;-19207.19;;;2.80;100.00
5350;BME280;2697;42.144;24.794;2023-01-26T14:09:44;-19203.28;;;2.67;100.00
5350;BME280;2697;42.144;24.794;2023-01-26T14:12:23;-19202.38;;;2.64;100.00
5350;BME280;2697;42.144;24.794;2023-01-26T14:14:58;-19202.97;;;2.66;100.00
5350;BME280;2697;42.144;24.794;2023-01-26T14:19:50;-19202.63;;;2.58;100.00
5350;BME280;2697;42.144;24.794;2023-01-26T14:22:15;-19207.75;;;2.76;100.00
5350;BME280;2697;42.144;24.794;2023-01-26T14:24:47;-19202.34;;;2.57;100.00
5350;BME280;2697;42.144;24.794;2023-01-26T14:29:57;-19198.41;;;2.44;100.00
5350;BME280;2697;42.144;24.794;2023-01-26T14:32:23;-19197.81;;;2.42;100.00
5350;BME280;2697;42.144;24.794;2023-01-26T14:34:57;-19198.13;;;2.43;100.00
5350;BME280;2697;42.144;24.794;2023-01-26T14:37:24;-19198.13;;;2.43;100.00
5350;BME280;2697;42.144;24.794;2023-01-26T14:40:09;-19200.84;;;2.52;100.00
5350;BME280;2697;42.144;24.794;2023-01-26T14:42:34;-19199.78;;;2.49;100.00